Aérodrome :
LOGIN :

S'inscrire | Disclaimer

   EN    FR    IT 

 










Légende :    VFR   VFR Marginal   IFR   IFR Intensif   IFR Très Intensif
Visi : 
Plafond : 
>= 8 km
>= 3000ft
5 à 8 km
1000 à 3000 ft
1500m à 5 km
500 à 1000 ft
800 à 1500m
200 à 500 ft
< 800m
< 200 ft
Symboles :   Orages  Brouillard  Fortes neiges  Fortes précipitations  Vent > 20 kt
SIGMETs :   Divers  Orages  Givrage  Turbulence  Onde Orograph.  Cendres Volcan.






- Altitude de l'aérodrome : 137 ft
- Code IATA : THN


ESGT - Trollhattan-Vanersborg

DERNIER METAR :
  • 181720Z AUTO 27011KT 9999 FEW076/// BKN110/// OVC160/// 05/04 Q1007

METARs EXPIRÉS :
  • 181650Z AUTO 25010KT 9999 FEW011/// SCT051/// BKN064/// 06/04 Q1007
  • 181620Z AUTO 25009KT 9999 SCT009/// BKN011/// BKN015/// 06/04 Q1006
  • 181550Z AUTO 22007KT 9999 FEW006/// BKN012/// OVC019/// 05/04 Q1006
  • 181520Z AUTO 20006KT 9000 OVC005/// 05/04 Q1005 REDZ
  • 181450Z AUTO 19007KT 6000 -DZ OVC005/// 05/04 Q1005 REDZ

Prévision TAF périmée.



MET'MAP, la Météo Aéronautique d'un coup d'oeil ! - Copyright ORBIFLY Décembre 2007 - Disclaimer

ORBIFLY MET'MAP TEAM :

Programmation & Développement : Alexandra Zaïnal
Sur une idée originale de : Baudouin d'Aumeries
Assistance à la programmation : Marc-Olivier Méhu
Soutien technique & logistique : Manuel Goepfert

Contact : metmap@orbifly.com




SOURCES & CREDITS :

   NOAA